sensor_id;sensor_type;location;lat;lon;timestamp;temperature;humidity
19945;DHT22;10134;50.952;6.930;2022-11-20T00:01:28;5.30;99.90
19945;DHT22;10134;50.952;6.930;2022-11-20T00:03:57;5.30;99.90
19945;DHT22;10134;50.952;6.930;2022-11-20T00:06:26;5.30;99.90
19945;DHT22;10134;50.952;6.930;2022-11-20T00:08:55;5.30;99.90
19945;DHT22;10134;50.952;6.930;2022-11-20T00:11:25;5.20;99.90
19945;DHT22;10134;50.952;6.930;2022-11-20T00:13:55;5.20;99.90
19945;DHT22;10134;50.952;6.930;2022-11-20T00:16:25;5.20;99.90
19945;DHT22;10134;50.952;6.930;2022-11-20T00:18:53;5.20;99.90
19945;DHT22;10134;50.952;6.930;2022-11-20T00:21:26;5.20;99.90
19945;DHT22;10134;50.952;6.930;2022-11-20T00:23:55;5.20;99.90
19945;DHT22;10134;50.952;6.930;2022-11-20T00:26:24;5.20;99.90
19945;DHT22;10134;50.952;6.930;2022-11-20T00:28:56;5.20;99.90
19945;DHT22;10134;50.952;6.930;2022-11-20T00:31:24;5.20;99.90
19945;DHT22;10134;50.952;6.930;2022-11-20T00:33:52;5.20;99.90
19945;DHT22;10134;50.952;6.930;2022-11-20T00:36:26;5.20;99.90
19945;DHT22;10134;50.952;6.930;2022-11-20T00:38:55;5.20;99.90
19945;DHT22;10134;50.952;6.930;2022-11-20T00:41:24;5.10;99.90
19945;DHT22;10134;50.952;6.930;2022-11-20T00:43:53;5.20;99.90
19945;DHT22;10134;50.952;6.930;2022-11-20T00:46:25;5.20;99.90
19945;DHT22;10134;50.952;6.930;2022-11-20T00:48:53;5.20;99.90
19945;DHT22;10134;50.952;6.930;2022-11-20T00:51:25;5.20;99.90
19945;DHT22;10134;50.952;6.930;2022-11-20T00:53:55;5.20;99.90
19945;DHT22;10134;50.952;6.930;2022-11-20T00:56:22;5.20;99.90
19945;DHT22;10134;50.952;6.930;2022-11-20T00:58:50;5.20;99.90
19945;DHT22;10134;50.952;6.930;2022-11-20T01:01:22;5.20;99.90
19945;DHT22;10134;50.952;6.930;2022-11-20T01:03:53;5.10;99.90
19945;DHT22;10134;50.952;6.930;2022-11-20T01:06:23;5.20;99.90
19945;DHT22;10134;50.952;6.930;2022-11-20T01:08:53;5.20;99.90
19945;DHT22;10134;50.952;6.930;2022-11-20T01:11:24;5.10;99.90
19945;DHT22;10134;50.952;6.930;2022-11-20T01:13:52;5.10;99.90
19945;DHT22;10134;50.952;6.930;2022-11-20T01:16:24;5.10;99.90
19945;DHT22;10134;50.952;6.930;2022-11-20T01:18:53;5.10;99.90
19945;DHT22;10134;50.952;6.930;2022-11-20T01:21:24;5.10;99.90
19945;DHT22;10134;50.952;6.930;2022-11-20T01:23:51;5.10;99.90
19945;DHT22;10134;50.952;6.930;2022-11-20T01:26:42;5.10;99.90
19945;DHT22;10134;50.952;6.930;2022-11-20T01:29:14;5.10;99.90
19945;DHT22;10134;50.952;6.930;2022-11-20T01:31:43;5.20;99.90
19945;DHT22;10134;50.952;6.930;2022-11-20T01:34:12;5.20;99.90
19945;DHT22;10134;50.952;6.930;2022-11-20T01:36:42;5.10;99.90
19945;DHT22;10134;50.952;6.930;2022-11-20T01:39:18;5.10;99.90
19945;DHT22;10134;50.952;6.930;2022-11-20T01:41:47;5.10;99.90
19945;DHT22;10134;50.952;6.930;2022-11-20T01:44:55;5.10;99.90
19945;DHT22;10134;50.952;6.930;2022-11-20T01:47:40;5.10;99.90
19945;DHT22;10134;50.952;6.930;2022-11-20T01:50:19;5.10;99.90
19945;DHT22;10134;50.952;6.930;2022-11-20T01:53:03;5.10;99.90
19945;DHT22;10134;50.952;6.930;2022-11-20T01:55:36;5.10;99.90
19945;DHT22;10134;50.952;6.930;2022-11-20T01:58:03;5.10;99.90
19945;DHT22;10134;50.952;6.930;2022-11-20T02:00:31;5.10;99.90
19945;DHT22;10134;50.952;6.930;2022-11-20T02:03:01;5.10;99.90
19945;DHT22;10134;50.952;6.930;2022-11-20T02:05:37;5.10;99.90
19945;DHT22;10134;50.952;6.930;2022-11-20T02:08:06;5.10;99.90
19945;DHT22;10134;50.952;6.930;2022-11-20T02:10:34;5.10;99.90
19945;DHT22;10134;50.952;6.930;2022-11-20T02:13:02;5.20;99.90
19945;DHT22;10134;50.952;6.930;2022-11-20T02:15:49;5.20;99.90
19945;DHT22;10134;50.952;6.930;2022-11-20T02:18:18;5.20;99.90
19945;DHT22;10134;50.952;6.930;2022-11-20T02:20:48;5.20;99.90
19945;DHT22;10134;50.952;6.930;2022-11-20T02:26:12;5.20;99.90
19945;DHT22;10134;50.952;6.930;2022-11-20T02:28:41;5.20;99.90
19945;DHT22;10134;50.952;6.930;2022-11-20T02:31:08;5.20;99.90
19945;DHT22;10134;50.952;6.930;2022-11-20T02:33:36;5.20;99.90
19945;DHT22;10134;50.952;6.930;2022-11-20T02:36:03;5.20;99.90
19945;DHT22;10134;50.952;6.930;2022-11-20T02:38:31;5.10;99.90
19945;DHT22;10134;50.952;6.930;2022-11-20T02:40:58;5.20;99.90
19945;DHT22;10134;50.952;6.930;2022-11-20T02:43:26;5.20;99.90
19945;DHT22;10134;50.952;6.930;2022-11-20T02:45:53;5.10;99.90
19945;DHT22;10134;50.952;6.930;2022-11-20T02:48:20;5.10;99.90
19945;DHT22;10134;50.952;6.930;2022-11-20T02:50:50;5.20;99.90
19945;DHT22;10134;50.952;6.930;2022-11-20T02:53:17;5.20;99.90
19945;DHT22;10134;50.952;6.930;2022-11-20T02:55:45;5.20;99.90
19945;DHT22;10134;50.952;6.930;2022-11-20T02:58:12;5.20;99.90
19945;DHT22;10134;50.952;6.930;2022-11-20T03:00:39;5.10;99.90
19945;DHT22;10134;50.952;6.930;2022-11-20T03:03:06;5.10;99.90
19945;DHT22;10134;50.952;6.930;2022-11-20T03:05:33;5.20;99.90
19945;DHT22;10134;50.952;6.930;2022-11-20T03:08:01;5.10;99.90
19945;DHT22;10134;50.952;6.930;2022-11-20T03:10:28;5.10;99.90
19945;DHT22;10134;50.952;6.930;2022-11-20T03:12:56;5.10;99.90
19945;DHT22;10134;50.952;6.930;2022-11-20T03:15:23;5.10;99.90
19945;DHT22;10134;50.952;6.930;2022-11-20T03:17:54;5.20;99.90
19945;DHT22;10134;50.952;6.930;2022-11-20T03:20:23;5.20;99.90
19945;DHT22;10134;50.952;6.930;2022-11-20T03:22:50;5.20;99.90
19945;DHT22;10134;50.952;6.930;2022-11-20T03:25:17;5.10;99.90
19945;DHT22;10134;50.952;6.930;2022-11-20T03:27:45;5.20;99.90
19945;DHT22;10134;50.952;6.930;2022-11-20T03:30:13;5.10;99.90
19945;DHT22;10134;50.952;6.930;2022-11-20T03:32:40;5.10;99.90
19945;DHT22;10134;50.952;6.930;2022-11-20T03:35:08;5.10;99.90
19945;DHT22;10134;50.952;6.930;2022-11-20T03:37:35;5.10;99.90
19945;DHT22;10134;50.952;6.930;2022-11-20T03:40:03;5.20;99.90
19945;DHT22;10134;50.952;6.930;2022-11-20T03:42:30;5.10;99.90
19945;DHT22;10134;50.952;6.930;2022-11-20T03:45:17;5.10;99.90
19945;DHT22;10134;50.952;6.930;2022-11-20T03:47:45;5.10;99.90
19945;DHT22;10134;50.952;6.930;2022-11-20T03:50:13;5.10;99.90
19945;DHT22;10134;50.952;6.930;2022-11-20T03:52:41;5.10;99.90
19945;DHT22;10134;50.952;6.930;2022-11-20T03:55:08;5.10;99.90
19945;DHT22;10134;50.952;6.930;2022-11-20T03:57:36;5.10;99.90
19945;DHT22;10134;50.952;6.930;2022-11-20T04:00:04;5.10;99.90
19945;DHT22;10134;50.952;6.930;2022-11-20T04:02:31;5.10;99.90
19945;DHT22;10134;50.952;6.930;2022-11-20T04:04:59;5.10;99.90
19945;DHT22;10134;50.952;6.930;2022-11-20T04:07:26;5.00;99.90
19945;DHT22;10134;50.952;6.930;2022-11-20T04:09:53;5.00;99.90
19945;DHT22;10134;50.952;6.930;2022-11-20T04:12:20;5.00;99.90
19945;DHT22;10134;50.952;6.930;2022-11-20T04:14:48;5.00;99.90
19945;DHT22;10134;50.952;6.930;2022-11-20T04:17:15;4.90;99.90
19945;DHT22;10134;50.952;6.930;2022-11-20T04:19:42;4.90;99.90
19945;DHT22;10134;50.952;6.930;2022-11-20T04:22:09;4.80;99.90
19945;DHT22;10134;50.952;6.930;2022-11-20T04:24:38;4.80;99.90
19945;DHT22;10134;50.952;6.930;2022-11-20T04:27:05;4.70;99.90
19945;DHT22;10134;50.952;6.930;2022-11-20T04:29:32;4.70;99.90
19945;DHT22;10134;50.952;6.930;2022-11-20T04:32:00;4.60;99.90
19945;DHT22;10134;50.952;6.930;2022-11-20T04:34:27;4.60;99.90
19945;DHT22;10134;50.952;6.930;2022-11-20T04:36:54;4.60;99.90
19945;DHT22;10134;50.952;6.930;2022-11-20T04:39:21;4.60;99.90
19945;DHT22;10134;50.952;6.930;2022-11-20T04:41:49;4.60;99.90
19945;DHT22;10134;50.952;6.930;2022-11-20T04:44:36;4.60;99.90
19945;DHT22;10134;50.952;6.930;2022-11-20T04:47:05;4.60;99.90
19945;DHT22;10134;50.952;6.930;2022-11-20T04:49:32;4.50;99.90
19945;DHT22;10134;50.952;6.930;2022-11-20T04:52:00;4.50;99.90
19945;DHT22;10134;50.952;6.930;2022-11-20T04:54:28;4.50;99.90
19945;DHT22;10134;50.952;6.930;2022-11-20T04:56:55;4.50;99.90
19945;DHT22;10134;50.952;6.930;2022-11-20T04:59:22;4.60;99.90
19945;DHT22;10134;50.952;6.930;2022-11-20T05:01:50;4.60;99.90
19945;DHT22;10134;50.952;6.930;2022-11-20T05:04:17;4.70;99.90
19945;DHT22;10134;50.952;6.930;2022-11-20T05:06:45;4.70;99.90
19945;DHT22;10134;50.952;6.930;2022-11-20T05:09:13;4.70;99.90
19945;DHT22;10134;50.952;6.930;2022-11-20T05:11:40;4.70;99.90
19945;DHT22;10134;50.952;6.930;2022-11-20T05:14:07;4.80;99.90
19945;DHT22;10134;50.952;6.930;2022-11-20T05:16:35;4.80;99.90
19945;DHT22;10134;50.952;6.930;2022-11-20T05:19:03;4.80;99.90
19945;DHT22;10134;50.952;6.930;2022-11-20T05:21:31;4.80;99.90
19945;DHT22;10134;50.952;6.930;2022-11-20T05:23:59;4.80;99.90
19945;DHT22;10134;50.952;6.930;2022-11-20T05:26:26;4.80;99.90
19945;DHT22;10134;50.952;6.930;2022-11-20T05:28:53;4.80;99.90
19945;DHT22;10134;50.952;6.930;2022-11-20T05:31:23;4.80;99.90
19945;DHT22;10134;50.952;6.930;2022-11-20T05:33:55;4.80;99.90
19945;DHT22;10134;50.952;6.930;2022-11-20T05:36:23;4.90;99.90
19945;DHT22;10134;50.952;6.930;2022-11-20T05:38:51;4.90;99.90
19945;DHT22;10134;50.952;6.930;2022-11-20T05:41:22;4.90;99.90
19945;DHT22;10134;50.952;6.930;2022-11-20T05:43:50;4.90;99.90
19945;DHT22;10134;50.952;6.930;2022-11-20T05:46:20;4.90;99.90
19945;DHT22;10134;50.952;6.930;2022-11-20T05:48:55;4.90;99.90
19945;DHT22;10134;50.952;6.930;2022-11-20T05:51:23;4.90;99.90
19945;DHT22;10134;50.952;6.930;2022-11-20T05:53:51;4.90;99.90
19945;DHT22;10134;50.952;6.930;2022-11-20T05:56:20;4.90;99.90
19945;DHT22;10134;50.952;6.930;2022-11-20T05:58:48;4.90;99.90
19945;DHT22;10134;50.952;6.930;2022-11-20T06:01:21;4.90;99.90
19945;DHT22;10134;50.952;6.930;2022-11-20T06:03:49;4.80;99.90
19945;DHT22;10134;50.952;6.930;2022-11-20T06:06:19;4.80;99.90
19945;DHT22;10134;50.952;6.930;2022-11-20T06:08:46;4.80;99.90
19945;DHT22;10134;50.952;6.930;2022-11-20T06:11:15;4.80;99.90
19945;DHT22;10134;50.952;6.930;2022-11-20T06:13:43;4.90;99.90
19945;DHT22;10134;50.952;6.930;2022-11-20T06:16:13;4.90;99.90
19945;DHT22;10134;50.952;6.930;2022-11-20T06:18:41;4.80;99.90
19945;DHT22;10134;50.952;6.930;2022-11-20T06:21:10;4.80;99.90
19945;DHT22;10134;50.952;6.930;2022-11-20T06:23:39;4.70;99.90
19945;DHT22;10134;50.952;6.930;2022-11-20T06:26:09;4.70;99.90
19945;DHT22;10134;50.952;6.930;2022-11-20T06:28:38;4.70;99.90
19945;DHT22;10134;50.952;6.930;2022-11-20T06:31:06;4.70;99.90
19945;DHT22;10134;50.952;6.930;2022-11-20T06:33:33;4.70;99.90
19945;DHT22;10134;50.952;6.930;2022-11-20T06:36:01;4.70;99.90
19945;DHT22;10134;50.952;6.930;2022-11-20T06:38:37;4.70;99.90
19945;DHT22;10134;50.952;6.930;2022-11-20T06:41:06;4.70;99.90
19945;DHT22;10134;50.952;6.930;2022-11-20T06:43:34;4.60;99.90
19945;DHT22;10134;50.952;6.930;2022-11-20T06:46:01;4.60;99.90
19945;DHT22;10134;50.952;6.930;2022-11-20T06:48:29;4.60;99.90
19945;DHT22;10134;50.952;6.930;2022-11-20T06:50:56;4.70;99.90
19945;DHT22;10134;50.952;6.930;2022-11-20T06:53:24;4.70;99.90
19945;DHT22;10134;50.952;6.930;2022-11-20T06:55:51;4.70;99.90
19945;DHT22;10134;50.952;6.930;2022-11-20T06:58:19;4.70;99.90
19945;DHT22;10134;50.952;6.930;2022-11-20T07:00:46;4.70;99.90
19945;DHT22;10134;50.952;6.930;2022-11-20T07:03:13;4.70;99.90
19945;DHT22;10134;50.952;6.930;2022-11-20T07:05:41;4.80;99.90
19945;DHT22;10134;50.952;6.930;2022-11-20T07:08:08;4.70;99.90
19945;DHT22;10134;50.952;6.930;2022-11-20T07:10:35;4.70;99.90
19945;DHT22;10134;50.952;6.930;2022-11-20T07:13:03;4.80;99.90
19945;DHT22;10134;50.952;6.930;2022-11-20T07:15:30;4.80;99.90
19945;DHT22;10134;50.952;6.930;2022-11-20T07:18:01;4.80;99.90
19945;DHT22;10134;50.952;6.930;2022-11-20T07:20:28;4.80;99.90
19945;DHT22;10134;50.952;6.930;2022-11-20T07:22:57;4.80;99.90
19945;DHT22;10134;50.952;6.930;2022-11-20T07:25:28;4.80;99.90
19945;DHT22;10134;50.952;6.930;2022-11-20T07:27:59;4.90;99.90
19945;DHT22;10134;50.952;6.930;2022-11-20T07:30:28;4.90;99.90
19945;DHT22;10134;50.952;6.930;2022-11-20T07:32:56;4.90;99.90
19945;DHT22;10134;50.952;6.930;2022-11-20T07:35:24;4.90;99.90
19945;DHT22;10134;50.952;6.930;2022-11-20T07:37:52;4.90;99.90
19945;DHT22;10134;50.952;6.930;2022-11-20T07:40:19;4.90;99.90
19945;DHT22;10134;50.952;6.930;2022-11-20T07:42:53;4.90;99.90
19945;DHT22;10134;50.952;6.930;2022-11-20T07:45:22;5.00;99.90
19945;DHT22;10134;50.952;6.930;2022-11-20T07:47:50;5.00;99.90
19945;DHT22;10134;50.952;6.930;2022-11-20T07:50:19;5.00;99.90
19945;DHT22;10134;50.952;6.930;2022-11-20T07:52:46;5.00;99.90
19945;DHT22;10134;50.952;6.930;2022-11-20T07:55:14;5.10;99.90
19945;DHT22;10134;50.952;6.930;2022-11-20T07:57:42;5.10;99.90
19945;DHT22;10134;50.952;6.930;2022-11-20T08:00:10;5.00;99.90
19945;DHT22;10134;50.952;6.930;2022-11-20T08:02:39;5.10;99.90
19945;DHT22;10134;50.952;6.930;2022-11-20T08:05:08;5.10;99.90
19945;DHT22;10134;50.952;6.930;2022-11-20T08:07:40;5.20;99.90
19945;DHT22;10134;50.952;6.930;2022-11-20T08:10:09;5.20;99.90
19945;DHT22;10134;50.952;6.930;2022-11-20T08:12:47;5.20;99.90
19945;DHT22;10134;50.952;6.930;2022-11-20T08:15:34;5.20;99.90
19945;DHT22;10134;50.952;6.930;2022-11-20T08:18:04;5.20;99.90
19945;DHT22;10134;50.952;6.930;2022-11-20T08:20:51;5.30;99.90
19945;DHT22;10134;50.952;6.930;2022-11-20T08:23:19;5.40;99.90
19945;DHT22;10134;50.952;6.930;2022-11-20T08:25:49;5.40;99.90
19945;DHT22;10134;50.952;6.930;2022-11-20T08:28:18;5.40;99.90
19945;DHT22;10134;50.952;6.930;2022-11-20T08:30:49;5.50;99.90
19945;DHT22;10134;50.952;6.930;2022-11-20T08:33:17;5.50;99.90
19945;DHT22;10134;50.952;6.930;2022-11-20T08:35:45;5.60;99.90
19945;DHT22;10134;50.952;6.930;2022-11-20T08:38:12;5.60;99.90
19945;DHT22;10134;50.952;6.930;2022-11-20T08:40:39;5.70;99.90
19945;DHT22;10134;50.952;6.930;2022-11-20T08:43:07;5.70;99.90
19945;DHT22;10134;50.952;6.930;2022-11-20T08:45:34;5.60;99.90
19945;DHT22;10134;50.952;6.930;2022-11-20T08:48:03;5.70;99.90
19945;DHT22;10134;50.952;6.930;2022-11-20T08:50:31;5.70;99.90
19945;DHT22;10134;50.952;6.930;2022-11-20T08:53:06;5.80;99.90
19945;DHT22;10134;50.952;6.930;2022-11-20T08:55:33;5.80;99.90
19945;DHT22;10134;50.952;6.930;2022-11-20T08:58:04;5.80;99.90
19945;DHT22;10134;50.952;6.930;2022-11-20T09:00:33;5.90;99.90
19945;DHT22;10134;50.952;6.930;2022-11-20T09:03:01;5.90;99.90
19945;DHT22;10134;50.952;6.930;2022-11-20T09:05:29;5.90;99.90
19945;DHT22;10134;50.952;6.930;2022-11-20T09:07:57;6.00;99.90
19945;DHT22;10134;50.952;6.930;2022-11-20T09:10:26;6.00;99.90
19945;DHT22;10134;50.952;6.930;2022-11-20T09:12:54;6.00;99.90
19945;DHT22;10134;50.952;6.930;2022-11-20T09:15:23;6.10;99.90
19945;DHT22;10134;50.952;6.930;2022-11-20T09:20:18;6.20;99.90
19945;DHT22;10134;50.952;6.930;2022-11-20T09:22:46;6.10;99.90
19945;DHT22;10134;50.952;6.930;2022-11-20T09:25:13;6.10;99.90
19945;DHT22;10134;50.952;6.930;2022-11-20T09:27:41;6.20;99.90
19945;DHT22;10134;50.952;6.930;2022-11-20T09:30:14;6.20;99.90
19945;DHT22;10134;50.952;6.930;2022-11-20T09:32:42;6.30;99.90
19945;DHT22;10134;50.952;6.930;2022-11-20T09:35:10;6.30;99.90
19945;DHT22;10134;50.952;6.930;2022-11-20T09:37:38;6.30;99.90
19945;DHT22;10134;50.952;6.930;2022-11-20T09:40:06;6.40;99.90
19945;DHT22;10134;50.952;6.930;2022-11-20T09:42:45;6.50;99.90
19945;DHT22;10134;50.952;6.930;2022-11-20T09:48:29;6.70;99.90
19945;DHT22;10134;50.952;6.930;2022-11-20T09:54:20;6.80;99.90
19945;DHT22;10134;50.952;6.930;2022-11-20T09:56:58;6.90;99.90
19945;DHT22;10134;50.952;6.930;2022-11-20T09:59:44;7.00;99.90
19945;DHT22;10134;50.952;6.930;2022-11-20T10:02:29;7.00;99.90
19945;DHT22;10134;50.952;6.930;2022-11-20T10:05:06;7.00;99.90
19945;DHT22;10134;50.952;6.930;2022-11-20T10:10:58;7.10;99.90
19945;DHT22;10134;50.952;6.930;2022-11-20T10:19:07;7.20;99.90
19945;DHT22;10134;50.952;6.930;2022-11-20T10:22:03;7.20;99.90
19945;DHT22;10134;50.952;6.930;2022-11-20T10:24:43;7.10;99.90
19945;DHT22;10134;50.952;6.930;2022-11-20T10:30:02;7.10;99.90
19945;DHT22;10134;50.952;6.930;2022-11-20T10:32:37;7.00;99.90
19945;DHT22;10134;50.952;6.930;2022-11-20T10:35:28;7.00;99.90
19945;DHT22;10134;50.952;6.930;2022-11-20T10:38:02;7.00;99.90
19945;DHT22;10134;50.952;6.930;2022-11-20T10:40:46;7.00;99.90
19945;DHT22;10134;50.952;6.930;2022-11-20T10:43:19;7.10;99.90
19945;DHT22;10134;50.952;6.930;2022-11-20T10:46:04;7.10;99.90
19945;DHT22;10134;50.952;6.930;2022-11-20T10:48:33;7.10;99.90
19945;DHT22;10134;50.952;6.930;2022-11-20T10:56:35;7.20;99.90
19945;DHT22;10134;50.952;6.930;2022-11-20T10:59:32;7.20;99.90
19945;DHT22;10134;50.952;6.930;2022-11-20T11:02:18;7.20;99.90
19945;DHT22;10134;50.952;6.930;2022-11-20T11:04:51;7.20;99.90
19945;DHT22;10134;50.952;6.930;2022-11-20T11:07:38;7.20;99.90
19945;DHT22;10134;50.952;6.930;2022-11-20T11:10:36;7.20;99.90
19945;DHT22;10134;50.952;6.930;2022-11-20T11:13:29;7.20;99.90
19945;DHT22;10134;50.952;6.930;2022-11-20T11:15:56;7.20;99.90
19945;DHT22;10134;50.952;6.930;2022-11-20T11:18:28;7.10;99.90
19945;DHT22;10134;50.952;6.930;2022-11-20T11:20:59;7.10;99.90
19945;DHT22;10134;50.952;6.930;2022-11-20T11:23:29;7.10;99.90
19945;DHT22;10134;50.952;6.930;2022-11-20T11:25:59;7.10;99.90
19945;DHT22;10134;50.952;6.930;2022-11-20T11:28:27;7.20;99.90
19945;DHT22;10134;50.952;6.930;2022-11-20T11:30:58;7.20;99.90
19945;DHT22;10134;50.952;6.930;2022-11-20T11:33:30;7.20;99.90
19945;DHT22;10134;50.952;6.930;2022-11-20T11:36:03;7.20;99.90
19945;DHT22;10134;50.952;6.930;2022-11-20T11:38:40;7.30;99.90
19945;DHT22;10134;50.952;6.930;2022-11-20T11:41:16;7.30;99.90
19945;DHT22;10134;50.952;6.930;2022-11-20T11:43:53;7.30;99.90
19945;DHT22;10134;50.952;6.930;2022-11-20T11:46:43;7.30;99.90
19945;DHT22;10134;50.952;6.930;2022-11-20T11:49:17;7.30;99.90
19945;DHT22;10134;50.952;6.930;2022-11-20T11:54:28;7.30;99.90
19945;DHT22;10134;50.952;6.930;2022-11-20T11:57:00;7.30;99.90
19945;DHT22;10134;50.952;6.930;2022-11-20T11:59:46;7.30;99.90
19945;DHT22;10134;50.952;6.930;2022-11-20T12:02:35;7.30;99.90
19945;DHT22;10134;50.952;6.930;2022-11-20T12:10:21;7.20;99.90
19945;DHT22;10134;50.952;6.930;2022-11-20T12:12:53;7.30;99.90
19945;DHT22;10134;50.952;6.930;2022-11-20T12:15:33;7.30;99.90
19945;DHT22;10134;50.952;6.930;2022-11-20T12:18:01;7.30;99.90
19945;DHT22;10134;50.952;6.930;2022-11-20T12:20:43;7.30;99.90
19945;DHT22;10134;50.952;6.930;2022-11-20T12:23:28;7.30;99.90
19945;DHT22;10134;50.952;6.930;2022-11-20T12:26:05;7.20;99.90
19945;DHT22;10134;50.952;6.930;2022-11-20T12:28:40;7.20;99.90
19945;DHT22;10134;50.952;6.930;2022-11-20T12:37:05;7.20;99.90
19945;DHT22;10134;50.952;6.930;2022-11-20T12:39:41;7.20;99.90
19945;DHT22;10134;50.952;6.930;2022-11-20T13:05:31;7.50;99.90
19945;DHT22;10134;50.952;6.930;2022-11-20T13:08:18;7.60;99.90
19945;DHT22;10134;50.952;6.930;2022-11-20T13:11:07;7.60;99.90
19945;DHT22;10134;50.952;6.930;2022-11-20T13:19:03;7.70;99.90
19945;DHT22;10134;50.952;6.930;2022-11-20T13:24:05;7.80;99.90
19945;DHT22;10134;50.952;6.930;2022-11-20T13:26:33;7.70;99.90
19945;DHT22;10134;50.952;6.930;2022-11-20T13:29:18;7.80;99.90
19945;DHT22;10134;50.952;6.930;2022-11-20T13:31:48;7.80;99.90
19945;DHT22;10134;50.952;6.930;2022-11-20T13:34:26;7.80;99.90
19945;DHT22;10134;50.952;6.930;2022-11-20T13:36:56;7.80;99.90
19945;DHT22;10134;50.952;6.930;2022-11-20T13:39:25;7.80;99.90
19945;DHT22;10134;50.952;6.930;2022-11-20T13:44:47;7.80;99.90
19945;DHT22;10134;50.952;6.930;2022-11-20T13:47:23;7.70;99.90
19945;DHT22;10134;50.952;6.930;2022-11-20T13:49:52;7.70;99.90
19945;DHT22;10134;50.952;6.930;2022-11-20T13:52:43;7.70;99.90
19945;DHT22;10134;50.952;6.930;2022-11-20T13:55:30;7.70;99.90
19945;DHT22;10134;50.952;6.930;2022-11-20T14:00:57;7.70;99.90
19945;DHT22;10134;50.952;6.930;2022-11-20T14:03:26;7.60;99.90
19945;DHT22;10134;50.952;6.930;2022-11-20T14:06:27;7.60;99.90
19945;DHT22;10134;50.952;6.930;2022-11-20T14:08:56;7.60;99.90
19945;DHT22;10134;50.952;6.930;2022-11-20T14:11:25;7.60;99.90
19945;DHT22;10134;50.952;6.930;2022-11-20T14:14:02;7.60;99.90
19945;DHT22;10134;50.952;6.930;2022-11-20T14:16:35;7.60;99.90
19945;DHT22;10134;50.952;6.930;2022-11-20T14:21:49;7.50;99.90
19945;DHT22;10134;50.952;6.930;2022-11-20T14:24:28;7.50;99.90
19945;DHT22;10134;50.952;6.930;2022-11-20T14:26:59;7.50;99.90
19945;DHT22;10134;50.952;6.930;2022-11-20T14:29:37;7.50;99.90
19945;DHT22;10134;50.952;6.930;2022-11-20T14:32:05;7.50;99.90
19945;DHT22;10134;50.952;6.930;2022-11-20T14:34:37;7.50;99.90
19945;DHT22;10134;50.952;6.930;2022-11-20T14:37:10;7.50;99.90
19945;DHT22;10134;50.952;6.930;2022-11-20T14:39:52;7.50;99.90
19945;DHT22;10134;50.952;6.930;2022-11-20T14:42:44;7.50;99.90
19945;DHT22;10134;50.952;6.930;2022-11-20T14:45:12;7.50;99.90
19945;DHT22;10134;50.952;6.930;2022-11-20T14:47:40;7.50;99.90
19945;DHT22;10134;50.952;6.930;2022-11-20T14:50:18;7.50;99.90
19945;DHT22;10134;50.952;6.930;2022-11-20T14:52:56;7.50;99.90
19945;DHT22;10134;50.952;6.930;2022-11-20T14:58:21;7.50;99.90
19945;DHT22;10134;50.952;6.930;2022-11-20T15:01:04;7.50;99.90
19945;DHT22;10134;50.952;6.930;2022-11-20T15:03:39;7.40;99.90
19945;DHT22;10134;50.952;6.930;2022-11-20T15:06:11;7.50;99.90
19945;DHT22;10134;50.952;6.930;2022-11-20T15:08:50;7.40;99.90
19945;DHT22;10134;50.952;6.930;2022-11-20T15:11:22;7.40;99.90
19945;DHT22;10134;50.952;6.930;2022-11-20T15:13:52;7.40;99.90
19945;DHT22;10134;50.952;6.930;2022-11-20T15:16:21;7.40;99.90
19945;DHT22;10134;50.952;6.930;2022-11-20T15:18:49;7.40;99.90
19945;DHT22;10134;50.952;6.930;2022-11-20T15:21:19;7.40;99.90
19945;DHT22;10134;50.952;6.930;2022-11-20T15:23:48;7.40;99.90
19945;DHT22;10134;50.952;6.930;2022-11-20T15:26:24;7.40;99.90
19945;DHT22;10134;50.952;6.930;2022-11-20T15:28:53;7.40;99.90
19945;DHT22;10134;50.952;6.930;2022-11-20T15:31:22;7.40;99.90
19945;DHT22;10134;50.952;6.930;2022-11-20T15:33:50;7.40;99.90
19945;DHT22;10134;50.952;6.930;2022-11-20T15:36:18;7.40;99.90
19945;DHT22;10134;50.952;6.930;2022-11-20T15:38:45;7.40;99.90
19945;DHT22;10134;50.952;6.930;2022-11-20T15:41:12;7.30;99.90
19945;DHT22;10134;50.952;6.930;2022-11-20T15:43:40;7.40;99.90
19945;DHT22;10134;50.952;6.930;2022-11-20T15:46:15;7.40;99.90
19945;DHT22;10134;50.952;6.930;2022-11-20T15:48:44;7.40;99.90
19945;DHT22;10134;50.952;6.930;2022-11-20T15:51:35;7.30;99.90
19945;DHT22;10134;50.952;6.930;2022-11-20T15:54:14;7.40;99.90
19945;DHT22;10134;50.952;6.930;2022-11-20T15:56:41;7.30;99.90
19945;DHT22;10134;50.952;6.930;2022-11-20T15:59:08;7.40;99.90
19945;DHT22;10134;50.952;6.930;2022-11-20T16:01:36;7.40;99.90
19945;DHT22;10134;50.952;6.930;2022-11-20T16:04:07;7.40;99.90
19945;DHT22;10134;50.952;6.930;2022-11-20T16:06:35;7.40;99.90
19945;DHT22;10134;50.952;6.930;2022-11-20T16:09:02;7.40;99.90
19945;DHT22;10134;50.952;6.930;2022-11-20T16:11:30;7.40;99.90
19945;DHT22;10134;50.952;6.930;2022-11-20T16:13:58;7.40;99.90
19945;DHT22;10134;50.952;6.930;2022-11-20T16:16:44;7.40;99.90
19945;DHT22;10134;50.952;6.930;2022-11-20T16:19:12;7.40;99.90
19945;DHT22;10134;50.952;6.930;2022-11-20T16:21:40;7.40;99.90
19945;DHT22;10134;50.952;6.930;2022-11-20T16:24:11;7.40;99.90
19945;DHT22;10134;50.952;6.930;2022-11-20T16:26:40;7.40;99.90
19945;DHT22;10134;50.952;6.930;2022-11-20T16:29:08;7.40;99.90
19945;DHT22;10134;50.952;6.930;2022-11-20T16:31:36;7.40;99.90
19945;DHT22;10134;50.952;6.930;2022-11-20T16:34:05;7.50;99.90
19945;DHT22;10134;50.952;6.930;2022-11-20T16:36:43;7.50;99.90
19945;DHT22;10134;50.952;6.930;2022-11-20T16:39:12;7.50;99.90
19945;DHT22;10134;50.952;6.930;2022-11-20T16:41:39;7.50;99.90
19945;DHT22;10134;50.952;6.930;2022-11-20T16:44:09;7.50;99.90
19945;DHT22;10134;50.952;6.930;2022-11-20T16:46:37;7.50;99.90
19945;DHT22;10134;50.952;6.930;2022-11-20T16:49:08;7.50;99.90
19945;DHT22;10134;50.952;6.930;2022-11-20T16:51:37;7.50;99.90
19945;DHT22;10134;50.952;6.930;2022-11-20T16:54:06;7.50;99.90
19945;DHT22;10134;50.952;6.930;2022-11-20T16:56:34;7.50;99.90
19945;DHT22;10134;50.952;6.930;2022-11-20T16:59:02;7.50;99.90
19945;DHT22;10134;50.952;6.930;2022-11-20T17:01:30;7.50;99.90
19945;DHT22;10134;50.952;6.930;2022-11-20T17:04:03;7.50;99.90
19945;DHT22;10134;50.952;6.930;2022-11-20T17:06:32;7.50;99.90
19945;DHT22;10134;50.952;6.930;2022-11-20T17:09:00;7.50;99.90
19945;DHT22;10134;50.952;6.930;2022-11-20T17:11:28;7.50;99.90
19945;DHT22;10134;50.952;6.930;2022-11-20T17:13:57;7.60;99.90
19945;DHT22;10134;50.952;6.930;2022-11-20T17:16:26;7.50;99.90
19945;DHT22;10134;50.952;6.930;2022-11-20T17:18:55;7.60;99.90
19945;DHT22;10134;50.952;6.930;2022-11-20T17:21:29;7.60;99.90
19945;DHT22;10134;50.952;6.930;2022-11-20T17:23:59;7.60;99.90
19945;DHT22;10134;50.952;6.930;2022-11-20T17:26:28;7.60;99.90
19945;DHT22;10134;50.952;6.930;2022-11-20T17:29:03;7.60;99.90
19945;DHT22;10134;50.952;6.930;2022-11-20T17:31:32;7.60;99.90
19945;DHT22;10134;50.952;6.930;2022-11-20T17:34:00;7.50;99.90
19945;DHT22;10134;50.952;6.930;2022-11-20T17:36:29;7.50;99.90